createdAt,value
2022-07-31T06:22:49.929Z,95
2022-07-31T06:33:07.370Z,118
2022-07-31T06:38:20.475Z,106
2022-07-31T06:43:33.472Z,101
2022-07-31T06:48:46.467Z,106
2022-07-31T06:53:59.485Z,135
2022-07-31T06:59:12.472Z,168
2022-07-31T07:04:25.472Z,185
2022-07-31T07:09:38.466Z,174
2022-07-31T07:14:51.464Z,151
2022-07-31T07:20:04.469Z,106
2022-07-31T07:25:17.465Z,106
2022-07-31T07:30:30.463Z,112
2022-07-31T07:35:43.480Z,95
2022-07-31T07:40:56.463Z,129
2022-07-31T07:46:09.455Z,129
2022-07-31T07:51:22.466Z,135
2022-07-31T07:56:35.458Z,135
2022-07-31T08:01:48.467Z,146
2022-07-31T08:07:01.479Z,157
2022-07-31T08:12:14.469Z,196
2022-07-31T08:17:27.473Z,230
2022-07-31T08:22:40.468Z,270
2022-07-31T08:27:53.465Z,315
2022-07-31T08:33:06.471Z,264
2022-07-31T08:38:19.478Z,225
2022-07-31T08:43:32.466Z,253
2022-07-31T08:48:45.477Z,326
2022-07-31T08:53:58.476Z,399
2022-07-31T08:59:11.468Z,298
2022-07-31T09:04:24.465Z,202
2022-07-31T09:09:37.469Z,236
2022-07-31T09:14:50.474Z,275
2022-07-31T09:20:03.476Z,320
2022-07-31T09:25:16.476Z,506
2022-07-31T09:30:29.471Z,326
2022-07-31T09:35:42.475Z,331
2022-07-31T09:40:55.478Z,337
2022-07-31T09:46:08.458Z,286
2022-07-31T09:51:21.472Z,416
2022-07-31T09:56:34.462Z,579
2022-07-31T10:01:47.453Z,540
2022-07-31T10:07:00.456Z,528
2022-07-31T10:12:13.467Z,39
2022-07-31T10:17:26.461Z,39
2022-07-31T10:22:39.469Z,39
2022-07-31T10:27:52.454Z,39
2022-07-31T10:33:05.460Z,39
2022-07-31T10:38:18.462Z,28
2022-07-31T10:43:31.468Z,28
2022-07-31T10:48:44.452Z,33
2022-07-31T10:53:57.465Z,39
2022-07-31T10:59:10.456Z,39
2022-07-31T11:04:23.457Z,33
2022-07-31T11:09:36.450Z,33
2022-07-31T11:14:49.466Z,28
2022-07-31T11:20:02.465Z,28
2022-07-31T11:25:15.454Z,28
2022-07-31T11:30:28.459Z,28
2022-07-31T11:35:41.463Z,28
2022-07-31T11:40:54.465Z,28
2022-07-31T11:46:07.478Z,22
2022-07-31T11:51:20.460Z,22
2022-07-31T11:56:33.456Z,16
2022-07-31T12:01:46.463Z,16
2022-07-31T12:06:59.465Z,11
2022-07-31T12:12:12.463Z,16
2022-07-31T12:17:25.462Z,22
2022-07-31T12:22:38.436Z,22
2022-07-31T12:27:51.459Z,22
2022-07-31T12:33:04.459Z,16
2022-07-31T12:38:17.590Z,28
2022-07-31T12:43:30.679Z,16
2022-07-31T12:48:43.665Z,22
